Pampa, Texas
Current Conditions -  °F | °C
As of 3:15 AM on Sunday 21 Dec 2014 (Local Time) from KPPA Reporting Station
Overcast Overcast  
Wind Chill: 31°   Ceiling: 1000
Heat Index: 39°   Visibility: 7mi
Dew Point: 38°   Wind: 15mph
Humidity: 94%   Direction: 180°S
Pressure: 29.93"   Gusts: NA
Location:  35.53°N, 100.95°W
Report Text: KPPA 210915Z AUTO 18013KT 7SM SCT006 OVC010 04/03 A2993 RMK AO2 T00410032 PNO
Loading
Personal Weather Stations






























Interactive Weather Map New forecast layout! Learn more

10-Day Weather Forecast

Advertisements
Track Severe Weather on mobile